Time;durP1;ratioP1;P1;durP2;ratioP2;P2;SDS_P1;SDS_P2;PMS_P1;PMS_P2;Temp;Humidity;BMP_temperature;BMP_pressure;BME280_temperature;BME280_humidity;BME280_pressure;Samples;Min_cycle;Max_cycle;Signal;HPM_P1;HPM_P2
2021/06/30 00:00:08;;;;;;;11.93;2.90;;;24.00;99.90;;;23.40;71.27;99868.31;5029304;28;20060;-56
2021/06/30 00:02:34;;;;;;;16.77;2.38;;;23.90;99.90;;;23.39;70.62;99867.50;5029052;28;20030;-54
2021/06/30 00:04:59;;;;;;;18.52;3.60;;;23.90;99.90;;;23.41;70.97;99865.41;5029069;28;20399;-53
2021/06/30 00:07:26;;;;;;;22.75;4.28;;;23.90;99.90;;;23.45;71.01;99863.06;5029089;28;20525;-58
2021/06/30 00:09:52;;;;;;;22.38;2.60;;;23.90;99.90;;;23.48;71.10;99863.38;5029224;28;20041;-56
2021/06/30 00:12:17;;;;;;;16.08;3.15;;;24.00;99.90;;;23.57;70.85;99865.66;5029205;28;20090;-55
2021/06/30 00:14:45;;;;;;;19.00;3.00;;;24.00;99.90;;;23.65;71.38;99862.56;5029193;28;20447;-57
2021/06/30 00:17:11;;;;;;;16.05;3.38;;;24.10;99.90;;;23.67;71.68;99861.28;5027431;28;20033;-58
2021/06/30 00:19:39;;;;;;;18.27;3.53;;;24.10;99.90;;;23.69;72.01;99853.06;5029020;28;20029;-54
2021/06/30 00:22:05;;;;;;;16.33;3.25;;;24.10;99.90;;;23.69;72.42;99863.69;5029127;28;20481;-56
2021/06/30 00:24:31;;;;;;;22.35;4.03;;;24.10;99.90;;;23.65;72.47;99862.56;5029061;28;20065;-58
2021/06/30 00:26:57;;;;;;;22.13;2.92;;;24.10;99.90;;;23.65;72.64;99857.25;5029259;28;20077;-57
2021/06/30 00:29:23;;;;;;;24.88;3.42;;;24.10;99.90;;;23.61;72.63;99856.16;5028803;28;20142;-56
2021/06/30 00:31:49;;;;;;;16.98;2.38;;;24.10;99.90;;;23.59;72.49;99853.75;5028459;28;20090;-52
2021/06/30 00:34:15;;;;;;;17.08;3.80;;;24.10;99.90;;;23.56;72.83;99859.53;5028106;28;20033;-52
2021/06/30 00:36:44;;;;;;;20.15;3.35;;;24.00;99.90;;;23.55;73.53;99851.81;5028394;28;20087;-55
2021/06/30 00:39:11;;;;;;;13.75;3.60;;;24.00;99.90;;;23.47;73.86;99842.34;5027048;28;20042;-59
2021/06/30 00:41:38;;;;;;;20.48;4.60;;;24.00;99.90;;;23.46;74.18;99852.19;5028175;28;20255;-53
2021/06/30 00:44:04;;;;;;;23.77;3.67;;;24.00;99.90;;;23.42;74.45;99848.41;5028407;28;20378;-59
2021/06/30 00:46:34;;;;;;;19.27;2.33;;;24.00;99.90;;;23.37;74.25;99848.31;5028651;28;20133;-57
2021/06/30 00:49:03;;;;;;;13.48;2.85;;;23.90;99.90;;;23.30;73.43;99850.34;5010240;28;20029;-56
2021/06/30 00:51:29;;;;;;;18.63;3.25;;;23.80;99.90;;;;;;5028055;28;20044;-47
2021/06/30 00:53:55;;;;;;;19.67;3.60;;;23.80;99.90;;;23.24;73.18;99848.66;5028147;28;20033;-52
2021/06/30 00:56:26;;;;;;;16.75;3.75;;;23.70;99.90;;;23.33;73.71;99846.41;5028203;28;20030;-55
2021/06/30 00:58:55;;;;;;;21.42;3.60;;;23.80;99.90;;;23.36;73.80;99844.06;5028011;28;20360;-53
2021/06/30 01:01:22;;;;;;;14.65;3.22;;;23.90;99.90;;;23.31;74.32;99846.63;5028658;28;20037;-57
2021/06/30 01:03:50;;;;;;;14.38;3.13;;;23.90;99.90;;;23.18;74.62;99844.28;5028092;28;20040;-48
2021/06/30 01:06:16;;;;;;;18.65;3.50;;;23.70;99.90;;;23.10;75.25;99850.03;5027966;28;20036;-52
2021/06/30 01:08:43;;;;;;;17.52;2.80;;;23.60;99.90;;;23.02;75.30;99847.78;5027951;28;20481;-52
2021/06/30 01:11:11;;;;;;;15.95;2.80;;;23.60;99.90;;;23.00;75.09;99853.31;5026340;28;20087;-54
2021/06/30 01:13:40;;;;;;;23.75;4.40;;;23.50;99.90;;;22.98;74.41;99854.63;5027711;28;20029;-53
2021/06/30 01:16:06;;;;;;;20.05;3.83;;;23.50;99.90;;;22.95;73.90;99863.88;5026227;28;20034;-52
2021/06/30 01:18:34;;;;;;;16.80;3.45;;;23.50;99.90;;;22.93;73.79;99851.88;5027458;28;20033;-52
2021/06/30 01:21:06;;;;;;;18.63;2.83;;;23.40;99.90;;;22.91;73.23;99849.44;5027728;28;20035;-53
2021/06/30 01:23:32;;;;;;;20.17;4.43;;;23.40;99.90;;;22.92;72.82;99852.91;5009659;28;20167;-54
2021/06/30 01:25:58;;;;;;;22.50;4.18;;;23.40;99.90;;;22.87;73.40;99847.50;5027735;28;20030;-52
2021/06/30 01:28:25;;;;;;;14.80;3.05;;;23.40;99.90;;;22.87;73.02;99847.50;5027726;28;20044;-51
2021/06/30 01:30:53;;;;;;;12.13;3.05;;;23.40;99.90;;;22.83;73.00;99848.00;5009726;28;20037;-51
2021/06/30 01:33:20;;;;;;;15.70;3.00;;;23.30;99.90;;;22.81;73.24;99852.72;5027263;28;20121;-53
2021/06/30 01:35:46;;;;;;;12.15;2.95;;;23.30;99.90;;;22.80;73.01;99856.44;5027288;28;20075;-55
2021/06/30 01:38:12;;;;;;;18.60;3.30;;;23.30;99.90;;;22.78;72.73;99857.69;5027318;28;20094;-51
2021/06/30 01:40:40;;;;;;;26.45;3.75;;;23.30;99.90;;;22.75;73.09;99848.34;5027342;28;20032;-54
2021/06/30 01:43:06;;;;;;;14.20;2.90;;;23.30;99.90;;;22.70;73.45;99845.59;5025834;28;20394;-56
2021/06/30 01:45:33;;;;;;;16.05;3.20;;;23.20;99.90;;;22.70;73.38;99850.09;5027697;28;20036;-52
2021/06/30 01:47:59;;;;;;;16.90;3.15;;;23.20;99.90;;;22.70;73.58;99850.91;5027437;28;20041;-51
2021/06/30 01:50:24;;;;;;;16.52;3.65;;;23.20;99.90;;;22.72;73.96;99846.16;5027556;28;20141;-56
2021/06/30 01:52:51;;;;;;;12.55;2.45;;;23.20;99.90;;;22.66;74.30;99846.34;5027194;28;20029;-57
2021/06/30 01:55:17;;;;;;;21.00;2.70;;;23.20;99.90;;;22.70;74.06;99842.94;5027266;28;20033;-53
2021/06/30 01:57:48;;;;;;;11.63;2.90;;;23.20;99.90;;;22.82;74.30;99846.38;5027372;28;20041;-53
2021/06/30 02:00:18;;;;;;;10.85;2.50;;;23.30;99.90;;;22.78;74.44;99845.25;5027012;28;20039;-54
2021/06/30 02:02:46;;;;;;;21.13;3.53;;;23.30;99.90;;;22.67;74.64;99843.44;5027210;28;20033;-58
2021/06/30 02:05:19;;;;;;;20.88;3.83;;;23.20;99.90;;;22.57;75.19;99851.22;5027147;28;20037;-55
2021/06/30 02:08:00;;;;;;;12.38;3.10;;;23.20;99.90;;;22.51;75.86;99850.31;5027021;28;20038;-55
2021/06/30 02:10:28;;;;;;;15.57;3.58;;;23.10;99.90;;;22.45;75.29;99847.81;5027060;28;20026;-55
2021/06/30 02:12:56;;;;;;;13.55;2.42;;;23.00;99.90;;;22.45;75.61;99851.25;5025598;28;20073;-54
2021/06/30 02:15:34;;;;;;;21.17;3.47;;;22.90;99.90;;;22.43;75.86;99852.53;5027023;28;20041;-51
2021/06/30 02:18:02;;;;;;;18.45;2.67;;;22.90;99.90;;;22.39;75.59;99851.41;5008929;28;20419;-55
2021/06/30 02:20:29;;;;;;;15.15;2.67;;;22.90;99.90;;;22.33;75.74;99853.16;5025338;28;20517;-54
2021/06/30 02:22:56;;;;;;;15.50;2.45;;;22.80;99.90;;;22.31;75.93;99862.38;5027161;28;20106;-56
2021/06/30 02:25:28;;;;;;;14.15;2.80;;;22.80;99.90;;;22.26;76.58;99854.31;5026997;28;20117;-52
2021/06/30 02:27:55;;;;;;;17.75;2.70;;;22.80;99.90;;;22.25;76.01;99858.81;5027111;28;20033;-54
2021/06/30 02:30:26;;;;;;;17.75;3.17;;;22.80;99.90;;;22.22;76.09;99853.19;5027035;28;20072;-57
2021/06/30 02:32:52;;;;;;;14.60;2.53;;;22.70;99.90;;;22.25;76.11;99858.00;5027212;28;20099;-55
2021/06/30 02:35:22;;;;;;;15.48;2.58;;;22.70;99.90;;;22.21;76.10;99859.56;5027142;28;20461;-56
2021/06/30 02:37:51;;;;;;;12.82;3.28;;;22.70;99.90;;;22.17;76.59;99859.22;5026728;28;20037;-53
2021/06/30 02:42:53;;;;;;;15.15;3.45;;;22.70;99.90;;;21.98;76.63;99863.03;4673049;22;20073;-54
2021/06/30 02:45:21;;;;;;;15.55;3.80;;;22.60;99.90;;;21.95;76.93;99863.47;5041690;28;20053;-55
2021/06/30 02:47:49;;;;;;;18.60;3.25;;;22.50;99.90;;;21.95;77.09;99869.59;5026598;28;20048;-52
2021/06/30 02:50:18;;;;;;;12.73;3.38;;;22.50;99.90;;;21.93;76.51;99861.06;5026489;28;20080;-53
2021/06/30 02:52:46;;;;;;;19.40;3.22;;;22.50;99.90;;;21.86;76.63;99871.78;5009004;28;20556;-57
2021/06/30 02:55:13;;;;;;;12.15;2.53;;;22.40;99.90;;;21.77;76.16;99873.19;5026645;28;20048;-55
2021/06/30 02:57:39;;;;;;;17.20;3.22;;;22.40;99.90;;;21.75;76.06;99877.09;5045032;28;20025;-55
2021/06/30 03:00:10;;;;;;;18.05;3.08;;;22.30;99.90;;;21.66;76.28;99881.97;5030146;28;20029;-58
2021/06/30 03:02:37;;;;;;;9.23;2.17;;;22.20;99.90;;;21.57;76.84;99885.19;5030352;28;20033;-55
2021/06/30 03:05:05;;;;;;;10.23;2.80;;;22.20;99.90;;;21.58;76.48;99881.50;5030156;28;20052;-53
2021/06/30 03:07:31;;;;;;;15.95;3.65;;;22.20;99.90;;;21.60;76.18;99888.19;5030251;28;20052;-51
2021/06/30 03:09:57;;;;;;;13.80;2.22;;;22.10;99.90;;;21.60;76.18;99887.38;5030206;28;20541;-57
2021/06/30 03:12:23;;;;;;;11.13;1.83;;;22.10;99.90;;;21.62;75.70;99880.00;5030278;28;20029;-54
2021/06/30 03:14:49;;;;;;;13.45;3.20;;;22.10;99.90;;;21.62;75.73;99885.31;5029819;28;20033;-48
2021/06/30 03:17:15;;;;;;;11.48;2.08;;;22.10;99.90;;;21.61;75.83;99889.00;5029830;28;20045;-54
2021/06/30 03:19:41;;;;;;;17.65;3.10;;;22.10;99.90;;;21.61;75.59;99881.03;5030038;28;20037;-53
2021/06/30 03:22:07;;;;;;;13.98;2.05;;;22.10;99.90;;;21.60;75.66;99887.38;5045087;28;20037;-57
2021/06/30 03:24:33;;;;;;;11.98;2.85;;;22.10;99.90;;;21.60;75.60;99887.38;5029971;28;20041;-55
2021/06/30 03:26:59;;;;;;;14.35;2.95;;;22.10;99.90;;;21.61;75.51;99896.94;5044756;28;20032;-53
2021/06/30 03:29:25;;;;;;;16.95;2.15;;;22.10;99.90;;;21.62;75.44;99895.91;5044782;28;20229;-52
2021/06/30 03:31:52;;;;;;;11.80;2.33;;;22.20;99.90;;;21.67;75.16;99903.97;5029464;28;20052;-55
2021/06/30 03:34:18;;;;;;;11.85;2.42;;;22.20;99.90;;;21.74;74.85;99907.34;5029493;28;20108;-56
2021/06/30 03:36:44;;;;;;;11.00;1.90;;;22.20;99.90;;;21.78;75.06;99903.16;5030022;28;20037;-56
2021/06/30 03:39:10;;;;;;;13.60;2.28;;;22.30;99.90;;;21.80;74.77;99915.16;5029795;28;20045;-55
2021/06/30 03:41:36;;;;;;;17.90;2.28;;;22.30;99.90;;;21.80;74.96;99911.69;5029555;28;20044;-54
2021/06/30 03:44:02;;;;;;;9.70;2.13;;;22.30;99.90;;;21.73;75.24;99916.31;5029232;28;20127;-55
2021/06/30 03:46:28;;;;;;;18.83;2.90;;;22.30;99.90;;;21.67;75.75;99920.69;5029330;28;20044;-51
2021/06/30 03:48:54;;;;;;;17.20;2.33;;;22.30;99.90;;;21.59;75.77;99925.53;5029871;28;20033;-55
2021/06/30 03:51:20;;;;;;;16.05;1.88;;;22.20;99.90;;;21.53;76.14;99928.06;5029653;28;20485;-53
2021/06/30 03:53:46;;;;;;;15.52;2.70;;;22.20;99.90;;;21.67;75.64;99926.00;5029179;28;20365;-57
2021/06/30 03:56:11;;;;;;;13.52;2.10;;;22.30;99.90;;;21.72;74.92;99941.22;5029016;28;20124;-52
2021/06/30 03:58:38;;;;;;;17.45;3.17;;;22.30;99.90;;;21.80;74.82;99936.34;5029513;28;20061;-54
2021/06/30 04:01:04;;;;;;;11.80;1.90;;;22.30;99.90;;;21.84;74.30;99931.41;5044102;28;20047;-56
2021/06/30 04:03:29;;;;;;;10.45;2.42;;;22.40;99.90;;;21.85;74.26;99939.13;5029284;28;20045;-50
2021/06/30 04:05:57;;;;;;;12.20;2.45;;;22.50;99.90;;;21.81;74.56;99937.97;5028895;28;20431;-51
2021/06/30 04:08:24;;;;;;;8.88;2.00;;;22.50;99.90;;;22.14;73.35;99945.38;5028001;28;20052;-53
2021/06/30 04:10:50;;;;;;;12.68;2.13;;;22.70;99.90;;;22.36;72.95;99947.41;5029230;28;20025;-54
2021/06/30 04:13:16;;;;;;;14.70;2.92;;;22.90;99.90;;;23.81;68.55;99954.81;5029027;28;20276;-54
2021/06/30 04:15:45;;;;;;;12.98;2.25;;;24.30;99.90;;;25.04;64.55;99952.69;5028734;28;20383;-57
2021/06/30 04:18:11;;;;;;;17.00;2.67;;;26.10;99.90;;;26.15;61.14;99946.59;5028904;28;20029;-57
2021/06/30 04:20:40;;;;;;;12.75;1.67;;;27.80;98.50;;;26.77;59.24;99957.28;5028922;28;20120;-54
2021/06/30 04:23:06;;;;;;;14.77;2.50;;;28.80;95.50;;;27.77;56.64;99951.53;5044014;28;20517;-55
2021/06/30 04:25:32;;;;;;;17.73;2.97;;;29.80;92.30;;;29.06;53.10;99952.34;5028635;28;20148;-57
2021/06/30 04:27:58;;;;;;;11.82;2.45;;;30.90;90.30;;;29.30;52.34;99961.28;5028585;28;20120;-55
2021/06/30 04:30:24;;;;;;;16.65;2.85;;;31.70;83.90;;;29.70;51.22;99960.19;5028722;28;20133;-55
2021/06/30 04:32:50;;;;;;;11.68;1.45;;;32.20;78.50;;;29.89;50.59;99967.50;5043828;28;20183;-49
2021/06/30 04:35:16;;;;;;;12.32;2.70;;;32.40;76.40;;;28.31;54.08;99968.56;5028588;28;20037;-52
2021/06/30 04:37:42;;;;;;;10.45;2.38;;;30.80;79.70;;;29.53;51.40;99970.53;5028427;28;20112;-55
2021/06/30 04:40:09;;;;;;;12.15;1.45;;;31.40;79.00;;;30.69;48.61;99965.81;5028757;28;20060;-56
2021/06/30 04:42:35;;;;;;;12.45;1.90;;;33.10;73.40;;;31.43;46.88;99968.75;5028351;28;20164;-55
2021/06/30 04:45:01;;;;;;;14.30;2.22;;;34.10;68.60;;;32.09;44.96;99964.91;5028383;28;20396;-54
2021/06/30 04:47:26;;;;;;;11.88;2.58;;;35.00;64.80;;;32.02;44.69;99966.41;5028363;28;20194;-56
2021/06/30 04:49:52;;;;;;;11.15;2.53;;;35.30;62.50;;;32.81;42.77;99975.06;5028372;28;20033;-55
2021/06/30 04:52:18;;;;;;;14.98;2.13;;;35.70;60.40;;;33.53;41.08;99970.41;5028281;28;20048;-56
2021/06/30 04:54:44;;;;;;;12.70;1.67;;;36.30;59.50;;;33.51;41.38;99967.22;5027966;28;20032;-56
2021/06/30 04:57:10;;;;;;;11.00;1.60;;;36.60;57.40;;;33.17;42.03;99964.22;5028080;28;20493;-55
2021/06/30 04:59:36;;;;;;;10.57;1.60;;;36.50;57.50;;;33.57;41.66;99970.53;5028365;28;20105;-56
2021/06/30 05:02:02;;;;;;;8.07;1.50;;;36.90;56.10;;;33.62;41.50;99971.22;5028017;28;20036;-57
2021/06/30 05:04:28;;;;;;;8.00;1.67;;;37.20;55.50;;;33.72;40.85;99967.47;5028105;28;20084;-57
2021/06/30 05:06:54;;;;;;;11.25;1.90;;;37.20;54.80;;;33.41;41.37;99967.47;5028004;28;20037;-56
2021/06/30 05:09:20;;;;;;;5.63;0.88;;;37.00;54.50;;;33.34;41.25;99960.88;5027870;28;20033;-56
2021/06/30 05:11:46;;;;;;;6.82;0.80;;;36.80;54.50;;;33.68;40.74;99965.69;5027671;28;20132;-56
2021/06/30 05:14:12;;;;;;;9.00;1.40;;;37.10;53.90;;;33.93;40.15;99963.16;5028060;28;20144;-56
2021/06/30 05:16:38;;;;;;;5.07;0.93;;;37.40;52.90;;;33.67;40.59;99954.09;5028018;28;20444;-57
2021/06/30 05:19:05;;;;;;;9.35;1.58;;;37.40;53.40;;;34.42;38.95;99953.16;5042691;28;20527;-56
2021/06/30 05:21:31;;;;;;;7.68;1.30;;;38.00;52.10;;;34.89;38.17;99951.47;5028067;28;20033;-55
2021/06/30 05:23:57;;;;;;;10.23;1.92;;;38.60;50.60;;;35.31;36.81;99961.78;5027686;28;20168;-57
2021/06/30 05:26:23;;;;;;;10.05;1.70;;;38.80;50.10;;;35.70;35.93;99964.22;5027666;28;20537;-56
2021/06/30 05:28:49;;;;;;;13.23;2.03;;;38.80;50.30;;;35.81;35.51;99965.50;5028262;28;20117;-56
2021/06/30 05:31:15;;;;;;;6.65;1.55;;;39.40;49.20;;;35.74;35.39;99958.97;5027801;28;20116;-52
2021/06/30 05:33:41;;;;;;;9.52;1.75;;;39.70;47.40;;;35.90;34.92;99963.56;5027824;28;20083;-56
2021/06/30 05:36:07;;;;;;;10.35;1.58;;;40.00;47.40;;;35.89;34.34;99961.97;5027453;28;20040;-56
2021/06/30 05:38:33;;;;;;;8.27;1.55;;;40.20;46.30;;;35.87;34.19;99964.22;5042514;28;20029;-56
2021/06/30 05:41:00;;;;;;;9.30;1.30;;;40.00;45.80;;;36.13;33.60;99963.28;5027933;28;20033;-53
2021/06/30 05:43:26;;;;;;;14.55;1.05;;;40.10;45.50;;;36.49;32.57;99969.00;5027415;28;20045;-53
2021/06/30 05:45:52;;;;;;;8.30;0.98;;;40.50;44.00;;;36.79;31.36;99967.06;5027362;28;20223;-52
2021/06/30 05:48:17;;;;;;;1.77;0.40;;;40.90;43.00;;;36.86;30.65;99971.97;5027431;28;20128;-56
2021/06/30 05:50:43;;;;;;;4.80;0.70;;;41.00;42.00;;;37.07;29.07;99970.00;5027701;28;20439;-55
2021/06/30 05:53:09;;;;;;;2.97;0.60;;;41.30;41.30;;;37.13;28.93;99965.97;5027216;28;20041;-54
2021/06/30 05:55:35;;;;;;;5.50;0.50;;;41.50;40.30;;;37.31;28.72;99977.50;5027134;28;20084;-56
2021/06/30 05:58:01;;;;;;;3.65;0.63;;;41.80;40.50;;;37.32;28.36;99973.66;5027534;28;20065;-56
2021/06/30 06:00:27;;;;;;;4.50;0.40;;;41.90;39.80;;;37.53;28.69;99979.00;5027052;28;20565;-57
2021/06/30 06:02:53;;;;;;;3.58;0.40;;;41.90;40.10;;;37.62;28.64;99977.00;5027191;28;20033;-52
2021/06/30 06:05:19;;;;;;;4.55;0.85;;;42.10;39.90;;;37.84;27.53;99979.31;5027253;28;20063;-53
2021/06/30 06:07:45;;;;;;;2.60;0.73;;;42.30;39.50;;;37.30;27.39;99977.81;5027095;28;20040;-53
2021/06/30 06:10:12;;;;;;;9.77;0.70;;;42.10;38.90;;;37.45;27.63;99974.44;5042169;28;20045;-55
2021/06/30 06:12:39;;;;;;;3.85;0.60;;;42.00;39.10;;;37.54;27.32;99975.16;5027250;28;20124;-55
2021/06/30 06:15:08;;;;;;;1.85;0.47;;;42.20;38.10;;;37.29;27.34;99978.94;5042087;28;20112;-50
2021/06/30 06:17:34;;;;;;;5.07;0.35;;;42.00;38.30;;;37.48;27.68;99977.28;5027246;28;20032;-52
2021/06/30 06:20:00;;;;;;;1.85;0.40;;;42.00;38.60;;;37.74;26.98;99968.88;5027154;28;20034;-53
2021/06/30 06:22:26;;;;;;;6.10;0.50;;;42.20;38.60;;;37.57;26.92;99974.50;5027057;28;20045;-54
2021/06/30 06:24:52;;;;;;;3.03;0.40;;;42.30;38.00;;;37.66;27.58;99971.69;5027135;28;20108;-55
2021/06/30 06:27:18;;;;;;;5.18;0.60;;;42.40;38.70;;;37.72;27.53;99965.72;5027120;28;20129;-50
2021/06/30 06:29:48;;;;;;;4.05;0.43;;;42.50;37.90;;;38.08;26.38;99978.53;5027159;28;20034;-56
2021/06/30 06:32:14;;;;;;;2.15;0.40;;;42.80;37.80;;;38.20;26.37;99980.50;5044978;28;20046;-53
2021/06/30 06:34:40;;;;;;;4.75;0.50;;;43.00;37.40;;;37.77;27.09;99978.28;5031206;28;20033;-56
2021/06/30 06:37:09;;;;;;;4.82;0.40;;;42.70;37.60;;;38.14;26.72;99977.19;5030766;28;20103;-56
2021/06/30 06:39:35;;;;;;;4.28;0.60;;;42.90;37.40;;;38.02;26.93;99979.09;5046102;28;20073;-53
2021/06/30 06:42:02;;;;;;;3.08;0.40;;;42.80;37.80;;;37.81;26.54;99973.78;5030609;28;20151;-53
2021/06/30 06:44:29;;;;;;;2.60;0.30;;;42.80;37.50;;;37.68;27.00;99975.69;5046116;28;20124;-57
2021/06/30 06:46:55;;;;;;;5.45;0.60;;;42.50;38.00;;;37.61;26.94;99978.13;5031030;28;20035;-55
2021/06/30 06:49:20;;;;;;;4.15;0.65;;;42.50;38.00;;;37.44;27.63;99983.72;5030827;28;20037;-51
2021/06/30 06:51:46;;;;;;;2.40;0.50;;;42.30;37.90;;;37.28;27.44;99977.38;5030533;28;20510;-51
2021/06/30 06:54:12;;;;;;;5.65;0.70;;;42.40;37.60;;;37.39;27.68;99981.22;5030755;28;20044;-55
2021/06/30 06:56:38;;;;;;;4.47;0.50;;;42.30;37.70;;;37.10;27.69;99977.50;5030886;28;20065;-50
2021/06/30 06:59:04;;;;;;;3.08;0.38;;;42.20;37.90;;;37.58;27.18;99976.06;5030872;28;20515;-56
2021/06/30 07:01:30;;;;;;;3.83;0.50;;;42.30;37.80;;;37.99;26.61;99980.56;5030626;28;20111;-52
2021/06/30 07:03:56;;;;;;;4.90;0.40;;;42.70;37.30;;;37.99;25.38;99983.28;5030469;28;20071;-53
2021/06/30 07:06:22;;;;;;;5.90;0.50;;;42.80;36.70;;;37.73;25.78;99983.63;5030429;28;20173;-57
2021/06/30 07:08:48;;;;;;;3.58;1.02;;;42.70;36.20;;;37.20;25.93;99981.72;5030635;28;20413;-53
2021/06/30 07:11:13;;;;;;;6.60;0.55;;;42.00;36.90;;;36.68;27.08;99979.41;5030424;28;20047;-57
2021/06/30 07:13:40;;;;;;;1.88;0.40;;;41.30;37.80;;;34.74;29.42;99980.88;5030447;28;20039;-61
2021/06/30 07:16:07;;;;;;;3.72;0.30;;;38.60;40.70;;;33.53;30.80;99969.59;5030157;28;20437;-61
2021/06/30 07:18:35;;;;;;;1.90;0.32;;;36.00;43.50;;;33.29;30.84;99975.31;5030268;28;20033;-61
2021/06/30 07:21:02;;;;;;;2.97;0.30;;;34.80;44.80;;;32.62;32.84;99977.84;5030114;28;20022;-60
2021/06/30 07:23:29;;;;;;;3.85;0.38;;;34.10;46.60;;;31.93;33.02;99983.25;5030499;28;20036;-59
2021/06/30 07:25:56;;;;;;;2.22;0.40;;;33.00;47.00;;;32.35;31.82;99981.41;5030274;28;20067;-59
2021/06/30 07:28:23;;;;;;;1.90;0.20;;;33.00;46.70;;;32.33;31.49;99986.28;5030021;28;20473;-58
2021/06/30 07:30:49;;;;;;;2.22;0.30;;;33.00;46.30;;;32.15;31.88;99987.16;5030070;28;20038;-59
2021/06/30 07:33:15;;;;;;;3.33;0.22;;;32.90;46.50;;;31.78;32.36;99983.53;5029901;28;20323;-58
2021/06/30 07:35:41;;;;;;;1.92;0.38;;;32.70;46.70;;;31.16;32.10;99985.63;5029520;28;20420;-59
2021/06/30 07:38:08;;;;;;;2.92;0.30;;;32.20;46.40;;;31.69;31.99;99979.91;5030013;28;20369;-59
2021/06/30 07:40:35;;;;;;;1.42;0.30;;;32.20;46.90;;;32.30;31.42;99970.72;5029816;28;20036;-59
2021/06/30 07:43:02;;;;;;;4.07;0.20;;;32.60;46.80;;;31.59;32.58;99974.69;5029388;28;20406;-59
2021/06/30 07:45:29;;;;;;;4.15;0.30;;;32.50;46.70;;;31.13;34.40;99969.25;5029916;28;20103;-59
2021/06/30 07:47:54;;;;;;;3.97;0.50;;;32.10;48.30;;;31.87;34.01;99968.28;5029595;28;20125;-59
2021/06/30 07:50:21;;;;;;;8.30;0.65;;;32.30;49.20;;;32.59;33.54;99967.69;5029524;28;20116;-60
2021/06/30 07:52:51;;;;;;;2.28;0.30;;;32.90;49.70;;;32.20;34.10;99971.69;5029746;28;20104;-60
2021/06/30 07:55:17;;;;;;;4.40;0.50;;;32.60;49.50;;;32.90;32.08;99971.34;5044552;28;20049;-59
2021/06/30 07:57:44;;;;;;;4.80;0.38;;;33.10;48.40;;;33.04;31.70;99968.59;5029417;28;20416;-59
2021/06/30 08:00:10;;;;;;;3.78;0.20;;;33.40;47.50;;;33.11;31.13;99971.66;5044532;28;20033;-59
2021/06/30 08:02:36;;;;;;;3.28;0.30;;;33.50;47.30;;;33.36;30.19;99975.69;5029550;28;20044;-59
2021/06/30 08:05:08;;;;;;;4.55;0.25;;;33.70;46.20;;;33.33;29.44;99976.28;5044401;28;20037;-59
2021/06/30 08:07:35;;;;;;;2.15;0.20;;;33.70;45.80;;;33.31;29.92;99973.09;5044345;28;20038;-59
2021/06/30 08:10:06;;;;;;;5.80;0.40;;;33.70;45.80;;;33.48;29.24;99984.03;5029699;28;20056;-59
2021/06/30 08:12:31;;;;;;;4.20;0.38;;;33.90;45.30;;;32.73;29.72;99973.03;5029076;28;20185;-59
2021/06/30 08:14:57;;;;;;;5.03;0.20;;;33.60;44.70;;;32.67;29.69;99975.03;5029089;28;20079;-59
2021/06/30 08:17:23;;;;;;;1.13;0.20;;;33.30;45.10;;;32.46;29.94;99990.88;5028900;28;20076;-59
2021/06/30 08:19:49;;;;;;;2.70;0.20;;;33.10;45.60;;;32.30;30.71;99981.50;5029486;28;20041;-60
2021/06/30 08:22:15;;;;;;;4.72;0.20;;;32.90;46.20;;;32.49;30.71;99984.88;5044388;28;20095;-59
2021/06/30 08:24:44;;;;;;;2.42;0.20;;;32.90;46.60;;;32.34;31.34;99987.88;5029294;28;20048;-59
2021/06/30 08:27:12;;;;;;;0.80;0.20;;;32.80;47.30;;;31.34;33.32;99995.53;5043570;28;20041;-58
2021/06/30 08:29:41;;;;;;;4.32;0.20;;;32.20;48.10;;;31.89;32.96;100003.81;5042606;28;20041;-55
2021/06/30 08:32:07;;;;;;;1.92;0.22;;;32.20;48.40;;;32.24;31.77;100001.56;5043930;28;20507;-53
2021/06/30 08:34:33;;;;;;;1.02;0.20;;;32.50;47.80;;;32.66;30.88;100001.22;5028746;28;20459;-52
2021/06/30 08:37:04;;;;;;;0.35;0.20;;;32.90;47.10;;;32.64;30.33;100003.41;5027489;28;20056;-55
2021/06/30 08:39:30;;;;;;;4.13;0.30;;;33.10;46.10;;;32.53;29.75;99999.38;5022249;28;20030;-58
2021/06/30 08:41:57;;;;;;;3.10;0.30;;;33.00;45.90;;;32.35;30.30;99994.88;5008060;28;20592;-51
2021/06/30 08:44:23;;;;;;;1.88;0.20;;;32.90;45.90;;;32.44;29.98;99997.66;5009786;28;20037;-55
2021/06/30 08:46:50;;;;;;;2.70;0.20;;;32.80;45.80;;;32.37;30.25;99998.06;5029169;28;20141;-51
2021/06/30 08:49:19;;;;;;;3.45;0.30;;;32.80;46.10;;;32.46;30.21;100009.75;5028959;28;20049;-56
2021/06/30 08:51:49;;;;;;;2.10;0.30;;;32.70;46.40;;;32.77;30.22;100009.13;5026965;28;20046;-51
2021/06/30 08:54:14;;;;;;;3.85;0.28;;;33.00;46.60;;;32.87;30.53;100012.41;5028219;28;20037;-50
2021/06/30 08:56:41;;;;;;;7.15;1.02;;;33.10;46.60;;;32.56;30.47;100009.53;5028129;28;20041;-50
2021/06/30 08:59:08;;;;;;;12.45;0.60;;;33.00;46.40;;;32.61;30.88;100008.66;5043272;28;20500;-50
2021/06/30 09:01:34;;;;;;;1.60;0.20;;;33.00;46.80;;;32.78;30.04;100008.81;5026628;28;20661;-49
2021/06/30 09:04:01;;;;;;;5.68;0.22;;;33.00;46.50;;;33.07;29.88;100004.97;5028110;28;20546;-52
2021/06/30 09:06:29;;;;;;;6.43;0.20;;;33.20;46.60;;;33.20;29.50;100004.09;5026575;28;20041;-50
2021/06/30 09:09:05;;;;;;;1.30;0.20;;;33.40;45.90;;;33.34;29.27;100006.78;5028023;28;20069;-50
2021/06/30 09:11:32;;;;;;;2.20;0.30;;;33.50;45.80;;;32.93;29.04;99995.00;5026352;28;20471;-51
2021/06/30 09:14:24;;;;;;;4.47;0.20;;;33.30;44.80;;;32.71;28.33;99996.81;5012578;28;20481;-52
2021/06/30 09:17:07;;;;;;;3.58;0.20;;;33.20;44.40;;;31.55;28.81;99997.91;5023306;28;20041;-52
2021/06/30 09:19:56;;;;;;;4.05;0.28;;;32.30;44.00;;;32.13;27.01;99992.06;5026954;28;20037;-55
2021/06/30 09:22:27;;;;;;;10.73;1.05;;;32.30;43.10;;;32.40;26.63;99985.88;5027970;28;20049;-54
2021/06/30 09:24:55;;;;;;;7.55;0.35;;;32.60;43.20;;;32.80;26.33;99984.25;5027925;28;20033;-54
2021/06/30 09:27:43;;;;;;;7.75;0.35;;;32.90;43.00;;;33.05;26.00;99986.38;5022221;28;20022;-54
2021/06/30 09:30:12;;;;;;;4.95;0.20;;;33.30;42.60;;;33.03;26.34;99979.69;5022986;28;20123;-54
2021/06/30 09:32:54;;;;;;;5.38;0.30;;;33.30;42.90;;;33.06;26.82;99977.19;5008194;28;20095;-54
2021/06/30 09:35:21;;;;;;;4.22;0.20;;;33.40;43.20;;;32.93;27.02;99978.03;5007927;28;20346;-54
2021/06/30 09:37:48;;;;;;;6.20;0.22;;;33.30;42.90;;;32.70;27.01;99973.66;5007807;28;20331;-55
2021/06/30 09:40:16;;;;;;;4.07;0.20;;;33.00;43.30;;;32.13;27.43;99968.59;5007973;28;20061;-55
2021/06/30 09:42:42;;;;;;;1.77;0.10;;;32.70;43.10;;;31.86;28.69;99972.06;5012788;28;20052;-51
2021/06/30 09:45:20;;;;;;;2.05;0.10;;;32.30;44.40;;;32.20;29.19;99976.28;5024911;28;20396;-57
2021/06/30 09:47:52;;;;;;;1.38;0.10;;;32.30;45.00;;;32.48;29.08;99974.41;5026735;28;20045;-56
2021/06/30 09:50:35;;;;;;;3.17;0.20;;;32.50;45.30;;;32.96;28.02;99969.31;5021185;28;20404;-51
2021/06/30 09:53:02;;;;;;;2.10;0.20;;;32.90;44.50;;;32.90;27.98;99973.25;5021213;28;20128;-54
2021/06/30 09:55:31;;;;;;;2.58;0.20;;;33.10;44.50;;;32.88;27.78;99972.75;5028052;28;20439;-52
2021/06/30 09:57:59;;;;;;;1.52;0.20;;;33.00;44.30;;;33.07;27.13;99978.78;5037712;28;20041;-53
2021/06/30 10:00:28;;;;;;;0.75;0.10;;;33.20;43.90;;;32.69;26.57;99982.84;5026244;28;20172;-54
2021/06/30 10:02:56;;;;;;;2.28;0.20;;;33.00;42.70;;;32.83;25.88;99989.03;5042037;28;20128;-54
2021/06/30 10:05:31;;;;;;;2.33;0.20;;;33.00;42.10;;;32.30;26.52;99979.59;5015506;28;20414;-54
2021/06/30 10:08:14;;;;;;;3.67;0.20;;;32.60;42.40;;;32.40;27.12;99977.78;5021971;28;20488;-53
2021/06/30 10:10:43;;;;;;;1.85;0.10;;;32.50;43.40;;;32.77;26.92;99985.66;5026656;28;20036;-57
2021/06/30 10:13:10;;;;;;;6.03;0.25;;;32.80;43.40;;;32.21;28.02;99997.53;5028399;28;20056;-55
2021/06/30 10:15:39;;;;;;;1.90;0.10;;;32.60;44.20;;;32.43;28.16;99990.69;5026639;28;20040;-53
2021/06/30 10:18:05;;;;;;;2.08;0.28;;;32.60;44.50;;;32.20;28.36;99987.84;5029602;28;20046;-55